Terminal Aerodrome Forecast
Issued by NWS

Home | Current Version | Previous Version | Text Only | Print | Product List | Glossary On
Versions: 1 2 3 4 5 6 7 8 9 10 11 12 13 14 15 16 17 18 19 20 21 22 23
000
FTUS46 KEKA 220536
TAFCEC
TAF
KCEC 220536Z 2206/2306 17015KT 6SM -RA BR OVC012
     FM221200 16008KT 6SM -SHRA SCT005 OVC010
     FM221900 17007KT 6SM -SHRA SCT010 BKN015 OVC025
     FM230200 VRB04KT P6SM SCT015 BKN035=

USA.gov is the U.S. government's official web portal to all federal, state and local government web resources and services.